sensor_id;sensor_type;location;lat;lon;timestamp;temperature;humidity
28546;DHT22;15749;49.606;8.738;2024-03-06T00:01:52;14.20;1.00
28546;DHT22;15749;49.606;8.738;2024-03-06T00:04:22;14.20;1.00
28546;DHT22;15749;49.606;8.738;2024-03-06T00:06:51;14.10;1.00
28546;DHT22;15749;49.606;8.738;2024-03-06T00:09:22;14.20;1.00
28546;DHT22;15749;49.606;8.738;2024-03-06T00:11:51;14.10;1.00
28546;DHT22;15749;49.606;8.738;2024-03-06T00:14:21;14.10;1.00
28546;DHT22;15749;49.606;8.738;2024-03-06T00:16:51;14.10;1.00
28546;DHT22;15749;49.606;8.738;2024-03-06T00:19:23;14.10;1.00
28546;DHT22;15749;49.606;8.738;2024-03-06T00:32:27;14.10;1.00
28546;DHT22;15749;49.606;8.738;2024-03-06T00:34:57;13.70;1.00
28546;DHT22;15749;49.606;8.738;2024-03-06T00:37:26;13.90;1.00
28546;DHT22;15749;49.606;8.738;2024-03-06T00:39:55;14.10;1.00
28546;DHT22;15749;49.606;8.738;2024-03-06T00:42:24;14.20;1.00
28546;DHT22;15749;49.606;8.738;2024-03-06T00:44:53;14.20;1.00
28546;DHT22;15749;49.606;8.738;2024-03-06T00:47:22;14.30;1.00
28546;DHT22;15749;49.606;8.738;2024-03-06T00:49:52;14.30;1.00
28546;DHT22;15749;49.606;8.738;2024-03-06T00:52:21;14.30;1.00
28546;DHT22;15749;49.606;8.738;2024-03-06T00:54:51;14.30;1.00
28546;DHT22;15749;49.606;8.738;2024-03-06T00:57:20;14.30;1.00
28546;DHT22;15749;49.606;8.738;2024-03-06T00:59:49;14.30;1.00
28546;DHT22;15749;49.606;8.738;2024-03-06T01:02:18;14.30;1.00
28546;DHT22;15749;49.606;8.738;2024-03-06T01:04:47;14.20;1.00
28546;DHT22;15749;49.606;8.738;2024-03-06T01:07:17;14.20;1.00
28546;DHT22;15749;49.606;8.738;2024-03-06T01:09:46;14.20;1.00
28546;DHT22;15749;49.606;8.738;2024-03-06T01:12:15;14.20;1.00
28546;DHT22;15749;49.606;8.738;2024-03-06T01:14:46;14.20;1.00
28546;DHT22;15749;49.606;8.738;2024-03-06T01:17:14;14.20;1.00
28546;DHT22;15749;49.606;8.738;2024-03-06T01:19:44;14.10;1.00
28546;DHT22;15749;49.606;8.738;2024-03-06T01:22:13;14.10;1.00
28546;DHT22;15749;49.606;8.738;2024-03-06T01:24:43;14.10;1.00
28546;DHT22;15749;49.606;8.738;2024-03-06T01:27:12;14.10;1.00
28546;DHT22;15749;49.606;8.738;2024-03-06T01:29:41;14.10;1.00
28546;DHT22;15749;49.606;8.738;2024-03-06T01:32:10;14.10;1.00
28546;DHT22;15749;49.606;8.738;2024-03-06T01:34:40;14.00;1.00
28546;DHT22;15749;49.606;8.738;2024-03-06T01:37:09;14.00;1.00
28546;DHT22;15749;49.606;8.738;2024-03-06T01:39:38;14.00;1.00
28546;DHT22;15749;49.606;8.738;2024-03-06T01:42:09;14.00;1.00
28546;DHT22;15749;49.606;8.738;2024-03-06T01:44:38;14.00;1.00
28546;DHT22;15749;49.606;8.738;2024-03-06T01:47:07;14.00;1.00
28546;DHT22;15749;49.606;8.738;2024-03-06T01:49:36;14.00;1.00
28546;DHT22;15749;49.606;8.738;2024-03-06T01:52:13;14.00;1.00
28546;DHT22;15749;49.606;8.738;2024-03-06T01:54:44;13.90;1.00
28546;DHT22;15749;49.606;8.738;2024-03-06T01:57:15;13.90;1.00
28546;DHT22;15749;49.606;8.738;2024-03-06T01:59:46;13.90;1.00
28546;DHT22;15749;49.606;8.738;2024-03-06T02:02:15;13.90;1.00
28546;DHT22;15749;49.606;8.738;2024-03-06T02:04:45;13.90;1.00
28546;DHT22;15749;49.606;8.738;2024-03-06T02:07:16;13.90;1.00
28546;DHT22;15749;49.606;8.738;2024-03-06T02:09:45;13.90;1.00
28546;DHT22;15749;49.606;8.738;2024-03-06T02:12:16;13.80;1.00
28546;DHT22;15749;49.606;8.738;2024-03-06T02:14:46;13.80;1.00
28546;DHT22;15749;49.606;8.738;2024-03-06T02:17:15;13.80;1.00
28546;DHT22;15749;49.606;8.738;2024-03-06T02:19:44;13.80;1.00
28546;DHT22;15749;49.606;8.738;2024-03-06T02:22:15;13.80;1.00
28546;DHT22;15749;49.606;8.738;2024-03-06T02:24:46;13.80;1.00
28546;DHT22;15749;49.606;8.738;2024-03-06T02:27:15;13.80;1.00
28546;DHT22;15749;49.606;8.738;2024-03-06T02:29:45;13.80;1.00
28546;DHT22;15749;49.606;8.738;2024-03-06T02:32:14;13.70;1.00
28546;DHT22;15749;49.606;8.738;2024-03-06T02:34:45;13.70;1.00
28546;DHT22;15749;49.606;8.738;2024-03-06T02:37:16;13.70;1.00
28546;DHT22;15749;49.606;8.738;2024-03-06T02:39:45;13.70;1.00
28546;DHT22;15749;49.606;8.738;2024-03-06T02:42:14;13.70;1.00
28546;DHT22;15749;49.606;8.738;2024-03-06T02:44:44;13.70;1.00
28546;DHT22;15749;49.606;8.738;2024-03-06T02:47:13;13.70;1.00
28546;DHT22;15749;49.606;8.738;2024-03-06T02:49:42;13.70;1.00
28546;DHT22;15749;49.606;8.738;2024-03-06T02:52:12;13.70;1.00
28546;DHT22;15749;49.606;8.738;2024-03-06T02:54:42;13.70;1.00
28546;DHT22;15749;49.606;8.738;2024-03-06T02:57:12;13.70;1.00
28546;DHT22;15749;49.606;8.738;2024-03-06T02:59:42;13.60;1.00
28546;DHT22;15749;49.606;8.738;2024-03-06T03:02:11;13.60;1.00
28546;DHT22;15749;49.606;8.738;2024-03-06T03:04:41;13.60;1.00
28546;DHT22;15749;49.606;8.738;2024-03-06T03:07:10;13.60;1.00
28546;DHT22;15749;49.606;8.738;2024-03-06T03:09:39;13.60;1.00
28546;DHT22;15749;49.606;8.738;2024-03-06T03:12:11;13.60;1.00
28546;DHT22;15749;49.606;8.738;2024-03-06T03:14:40;13.60;1.00
28546;DHT22;15749;49.606;8.738;2024-03-06T03:17:09;13.60;1.00
28546;DHT22;15749;49.606;8.738;2024-03-06T03:19:39;13.60;1.00
28546;DHT22;15749;49.606;8.738;2024-03-06T03:22:08;13.60;1.00
28546;DHT22;15749;49.606;8.738;2024-03-06T03:24:38;13.60;1.00
28546;DHT22;15749;49.606;8.738;2024-03-06T03:27:07;13.60;1.00
28546;DHT22;15749;49.606;8.738;2024-03-06T03:29:38;13.50;1.00
28546;DHT22;15749;49.606;8.738;2024-03-06T03:32:07;13.50;1.00
28546;DHT22;15749;49.606;8.738;2024-03-06T03:34:37;13.50;1.00
28546;DHT22;15749;49.606;8.738;2024-03-06T03:37:07;13.50;1.00
28546;DHT22;15749;49.606;8.738;2024-03-06T03:39:36;13.50;1.00
28546;DHT22;15749;49.606;8.738;2024-03-06T03:42:05;13.50;1.00
28546;DHT22;15749;49.606;8.738;2024-03-06T03:44:35;13.50;1.00
28546;DHT22;15749;49.606;8.738;2024-03-06T03:47:06;13.50;1.00
28546;DHT22;15749;49.606;8.738;2024-03-06T03:49:35;13.50;1.00
28546;DHT22;15749;49.606;8.738;2024-03-06T03:52:05;13.50;1.00
28546;DHT22;15749;49.606;8.738;2024-03-06T03:54:34;13.50;1.00
28546;DHT22;15749;49.606;8.738;2024-03-06T03:57:04;13.50;1.00
28546;DHT22;15749;49.606;8.738;2024-03-06T03:59:34;13.50;1.00
28546;DHT22;15749;49.606;8.738;2024-03-06T04:02:06;13.50;1.00
28546;DHT22;15749;49.606;8.738;2024-03-06T04:04:35;13.50;1.00
28546;DHT22;15749;49.606;8.738;2024-03-06T04:07:04;13.40;1.00
28546;DHT22;15749;49.606;8.738;2024-03-06T04:09:33;13.40;1.00
28546;DHT22;15749;49.606;8.738;2024-03-06T04:12:04;13.40;1.00
28546;DHT22;15749;49.606;8.738;2024-03-06T04:14:33;13.40;1.00
28546;DHT22;15749;49.606;8.738;2024-03-06T04:17:02;13.40;1.00
28546;DHT22;15749;49.606;8.738;2024-03-06T04:19:33;13.40;1.00
28546;DHT22;15749;49.606;8.738;2024-03-06T04:22:02;13.40;1.00
28546;DHT22;15749;49.606;8.738;2024-03-06T04:24:32;13.40;1.00
28546;DHT22;15749;49.606;8.738;2024-03-06T04:27:01;13.40;1.00
28546;DHT22;15749;49.606;8.738;2024-03-06T04:29:30;13.40;1.00
28546;DHT22;15749;49.606;8.738;2024-03-06T04:32:00;13.40;1.00
28546;DHT22;15749;49.606;8.738;2024-03-06T04:34:29;13.40;1.00
28546;DHT22;15749;49.606;8.738;2024-03-06T04:37:01;13.40;1.00
28546;DHT22;15749;49.606;8.738;2024-03-06T04:39:31;13.40;1.00
28546;DHT22;15749;49.606;8.738;2024-03-06T04:42:01;13.40;1.00
28546;DHT22;15749;49.606;8.738;2024-03-06T04:44:33;13.40;1.00
28546;DHT22;15749;49.606;8.738;2024-03-06T04:47:02;13.30;1.00
28546;DHT22;15749;49.606;8.738;2024-03-06T04:49:33;13.30;1.00
28546;DHT22;15749;49.606;8.738;2024-03-06T04:52:04;13.30;1.00
28546;DHT22;15749;49.606;8.738;2024-03-06T04:54:33;13.30;1.00
28546;DHT22;15749;49.606;8.738;2024-03-06T04:57:03;13.30;1.00
28546;DHT22;15749;49.606;8.738;2024-03-06T04:59:32;13.30;1.00
28546;DHT22;15749;49.606;8.738;2024-03-06T05:02:01;13.30;1.00
28546;DHT22;15749;49.606;8.738;2024-03-06T05:04:31;13.30;1.00
28546;DHT22;15749;49.606;8.738;2024-03-06T05:07:19;13.30;1.00
28546;DHT22;15749;49.606;8.738;2024-03-06T05:10:06;13.30;1.00
28546;DHT22;15749;49.606;8.738;2024-03-06T05:12:53;13.30;1.00
28546;DHT22;15749;49.606;8.738;2024-03-06T05:15:40;13.30;1.00
28546;DHT22;15749;49.606;8.738;2024-03-06T05:18:27;13.30;1.00
28546;DHT22;15749;49.606;8.738;2024-03-06T05:21:14;13.30;1.00
28546;DHT22;15749;49.606;8.738;2024-03-06T05:24:02;13.20;1.00
28546;DHT22;15749;49.606;8.738;2024-03-06T05:26:48;13.20;1.00
28546;DHT22;15749;49.606;8.738;2024-03-06T05:29:35;13.20;1.00
28546;DHT22;15749;49.606;8.738;2024-03-06T05:32:21;13.20;1.00
28546;DHT22;15749;49.606;8.738;2024-03-06T05:35:08;13.20;1.00
28546;DHT22;15749;49.606;8.738;2024-03-06T05:37:55;13.20;1.00
28546;DHT22;15749;49.606;8.738;2024-03-06T05:40:43;13.20;1.00
28546;DHT22;15749;49.606;8.738;2024-03-06T05:43:30;13.20;1.00
28546;DHT22;15749;49.606;8.738;2024-03-06T05:46:17;13.20;1.00
28546;DHT22;15749;49.606;8.738;2024-03-06T05:49:05;13.20;1.00
28546;DHT22;15749;49.606;8.738;2024-03-06T05:51:51;13.20;1.00
28546;DHT22;15749;49.606;8.738;2024-03-06T05:54:37;13.10;1.00
28546;DHT22;15749;49.606;8.738;2024-03-06T05:57:26;13.10;1.00
28546;DHT22;15749;49.606;8.738;2024-03-06T06:00:14;13.20;1.00
28546;DHT22;15749;49.606;8.738;2024-03-06T06:02:51;13.10;1.00
28546;DHT22;15749;49.606;8.738;2024-03-06T06:05:25;13.10;1.00
28546;DHT22;15749;49.606;8.738;2024-03-06T06:07:56;13.10;1.00
28546;DHT22;15749;49.606;8.738;2024-03-06T06:10:27;13.10;1.00
28546;DHT22;15749;49.606;8.738;2024-03-06T06:13:01;13.10;1.00
28546;DHT22;15749;49.606;8.738;2024-03-06T06:15:34;13.10;1.00
28546;DHT22;15749;49.606;8.738;2024-03-06T06:18:04;13.10;1.00
28546;DHT22;15749;49.606;8.738;2024-03-06T06:20:35;13.10;1.00
28546;DHT22;15749;49.606;8.738;2024-03-06T06:23:04;13.10;1.00
28546;DHT22;15749;49.606;8.738;2024-03-06T06:25:33;13.10;1.00
28546;DHT22;15749;49.606;8.738;2024-03-06T06:28:04;13.10;1.00
28546;DHT22;15749;49.606;8.738;2024-03-06T06:30:33;13.10;1.00
28546;DHT22;15749;49.606;8.738;2024-03-06T06:33:03;13.10;1.00
28546;DHT22;15749;49.606;8.738;2024-03-06T06:35:32;13.10;1.00
28546;DHT22;15749;49.606;8.738;2024-03-06T06:38:01;13.10;1.00
28546;DHT22;15749;49.606;8.738;2024-03-06T06:40:32;13.10;1.00
28546;DHT22;15749;49.606;8.738;2024-03-06T06:43:01;13.10;1.00
28546;DHT22;15749;49.606;8.738;2024-03-06T06:45:32;13.10;1.00
28546;DHT22;15749;49.606;8.738;2024-03-06T06:48:01;13.10;1.00
28546;DHT22;15749;49.606;8.738;2024-03-06T06:50:30;13.10;1.00
28546;DHT22;15749;49.606;8.738;2024-03-06T06:53:01;13.10;1.00
28546;DHT22;15749;49.606;8.738;2024-03-06T06:55:30;13.10;1.00
28546;DHT22;15749;49.606;8.738;2024-03-06T06:57:59;13.10;1.00
28546;DHT22;15749;49.606;8.738;2024-03-06T07:00:28;13.10;1.00
28546;DHT22;15749;49.606;8.738;2024-03-06T07:02:59;13.10;1.00
28546;DHT22;15749;49.606;8.738;2024-03-06T07:05:28;13.10;1.00
28546;DHT22;15749;49.606;8.738;2024-03-06T07:07:57;13.10;1.00
28546;DHT22;15749;49.606;8.738;2024-03-06T07:10:27;13.00;1.00
28546;DHT22;15749;49.606;8.738;2024-03-06T07:12:56;13.00;1.00
28546;DHT22;15749;49.606;8.738;2024-03-06T07:15:25;13.00;1.00
28546;DHT22;15749;49.606;8.738;2024-03-06T07:17:54;13.00;1.00
28546;DHT22;15749;49.606;8.738;2024-03-06T07:20:24;13.10;1.00
28546;DHT22;15749;49.606;8.738;2024-03-06T07:22:54;13.00;1.00
28546;DHT22;15749;49.606;8.738;2024-03-06T07:25:23;13.00;1.00
28546;DHT22;15749;49.606;8.738;2024-03-06T07:27:53;13.00;1.00
28546;DHT22;15749;49.606;8.738;2024-03-06T07:30:22;13.10;1.00
28546;DHT22;15749;49.606;8.738;2024-03-06T07:32:51;13.10;1.00
28546;DHT22;15749;49.606;8.738;2024-03-06T07:35:20;13.10;1.00
28546;DHT22;15749;49.606;8.738;2024-03-06T07:37:50;13.00;1.00
28546;DHT22;15749;49.606;8.738;2024-03-06T07:40:20;13.00;1.00
28546;DHT22;15749;49.606;8.738;2024-03-06T07:42:49;13.10;1.00
28546;DHT22;15749;49.606;8.738;2024-03-06T07:45:18;13.10;1.00
28546;DHT22;15749;49.606;8.738;2024-03-06T07:47:48;13.10;1.00
28546;DHT22;15749;49.606;8.738;2024-03-06T07:50:17;13.10;1.00
28546;DHT22;15749;49.606;8.738;2024-03-06T07:52:47;13.10;1.00
28546;DHT22;15749;49.606;8.738;2024-03-06T07:55:18;13.10;1.00
28546;DHT22;15749;49.606;8.738;2024-03-06T07:57:49;13.10;1.00
28546;DHT22;15749;49.606;8.738;2024-03-06T08:00:19;13.10;1.00
28546;DHT22;15749;49.606;8.738;2024-03-06T08:02:48;13.10;1.00
28546;DHT22;15749;49.606;8.738;2024-03-06T08:05:18;13.10;1.00
28546;DHT22;15749;49.606;8.738;2024-03-06T08:07:49;13.10;1.00
28546;DHT22;15749;49.606;8.738;2024-03-06T08:10:19;13.10;1.00
28546;DHT22;15749;49.606;8.738;2024-03-06T08:12:48;13.10;1.00
28546;DHT22;15749;49.606;8.738;2024-03-06T08:15:18;13.10;1.00
28546;DHT22;15749;49.606;8.738;2024-03-06T08:17:48;13.10;1.00
28546;DHT22;15749;49.606;8.738;2024-03-06T08:20:19;13.10;1.00
28546;DHT22;15749;49.606;8.738;2024-03-06T08:22:48;13.10;1.00
28546;DHT22;15749;49.606;8.738;2024-03-06T08:25:19;13.10;1.00
28546;DHT22;15749;49.606;8.738;2024-03-06T08:27:48;13.10;1.00
28546;DHT22;15749;49.606;8.738;2024-03-06T08:30:17;13.10;1.00
28546;DHT22;15749;49.606;8.738;2024-03-06T08:32:46;13.20;1.00
28546;DHT22;15749;49.606;8.738;2024-03-06T08:35:15;13.20;1.00
28546;DHT22;15749;49.606;8.738;2024-03-06T08:37:48;13.20;1.00
28546;DHT22;15749;49.606;8.738;2024-03-06T08:40:19;13.20;1.00
28546;DHT22;15749;49.606;8.738;2024-03-06T08:42:48;13.20;1.00
28546;DHT22;15749;49.606;8.738;2024-03-06T08:45:17;13.20;1.00
28546;DHT22;15749;49.606;8.738;2024-03-06T08:47:47;13.20;1.00
28546;DHT22;15749;49.606;8.738;2024-03-06T08:50:17;13.20;1.00
28546;DHT22;15749;49.606;8.738;2024-03-06T08:52:46;13.30;1.00
28546;DHT22;15749;49.606;8.738;2024-03-06T08:55:16;13.30;1.00
28546;DHT22;15749;49.606;8.738;2024-03-06T08:57:46;13.30;1.00
28546;DHT22;15749;49.606;8.738;2024-03-06T09:00:16;13.30;1.00
28546;DHT22;15749;49.606;8.738;2024-03-06T09:02:45;13.30;1.00
28546;DHT22;15749;49.606;8.738;2024-03-06T09:05:15;13.40;1.00
28546;DHT22;15749;49.606;8.738;2024-03-06T09:07:44;13.40;1.00
28546;DHT22;15749;49.606;8.738;2024-03-06T09:10:14;13.40;1.00
28546;DHT22;15749;49.606;8.738;2024-03-06T09:12:43;13.40;1.00
28546;DHT22;15749;49.606;8.738;2024-03-06T09:15:14;13.40;1.00
28546;DHT22;15749;49.606;8.738;2024-03-06T09:17:44;13.50;1.00
28546;DHT22;15749;49.606;8.738;2024-03-06T09:20:14;13.50;1.00
28546;DHT22;15749;49.606;8.738;2024-03-06T09:22:44;13.60;1.00
28546;DHT22;15749;49.606;8.738;2024-03-06T09:25:13;13.60;1.00
28546;DHT22;15749;49.606;8.738;2024-03-06T09:27:43;13.60;1.00
28546;DHT22;15749;49.606;8.738;2024-03-06T09:30:14;13.70;1.00
28546;DHT22;15749;49.606;8.738;2024-03-06T09:32:44;13.70;1.00
28546;DHT22;15749;49.606;8.738;2024-03-06T09:35:13;13.80;1.00
28546;DHT22;15749;49.606;8.738;2024-03-06T09:37:45;13.80;1.00
28546;DHT22;15749;49.606;8.738;2024-03-06T09:40:22;13.90;1.00
28546;DHT22;15749;49.606;8.738;2024-03-06T09:42:52;13.90;1.00
28546;DHT22;15749;49.606;8.738;2024-03-06T09:45:22;14.00;1.00
28546;DHT22;15749;49.606;8.738;2024-03-06T09:47:52;14.10;1.00
28546;DHT22;15749;49.606;8.738;2024-03-06T09:50:23;14.10;1.00
28546;DHT22;15749;49.606;8.738;2024-03-06T09:52:55;14.20;1.00
28546;DHT22;15749;49.606;8.738;2024-03-06T09:55:25;14.20;1.00
28546;DHT22;15749;49.606;8.738;2024-03-06T09:57:55;14.30;1.00
28546;DHT22;15749;49.606;8.738;2024-03-06T10:00:26;14.40;1.00
28546;DHT22;15749;49.606;8.738;2024-03-06T10:02:57;14.40;1.00
28546;DHT22;15749;49.606;8.738;2024-03-06T10:05:28;14.50;1.00
28546;DHT22;15749;49.606;8.738;2024-03-06T10:12:38;14.50;1.00
28546;DHT22;15749;49.606;8.738;2024-03-06T10:15:08;14.50;1.00
28546;DHT22;15749;49.606;8.738;2024-03-06T10:17:40;14.60;1.00
28546;DHT22;15749;49.606;8.738;2024-03-06T10:20:18;14.80;1.00
28546;DHT22;15749;49.606;8.738;2024-03-06T10:22:52;14.90;1.00
28546;DHT22;15749;49.606;8.738;2024-03-06T10:25:26;14.90;1.00
28546;DHT22;15749;49.606;8.738;2024-03-06T10:28:07;15.00;1.00
28546;DHT22;15749;49.606;8.738;2024-03-06T10:30:38;15.10;1.00
28546;DHT22;15749;49.606;8.738;2024-03-06T10:33:11;15.10;1.00
28546;DHT22;15749;49.606;8.738;2024-03-06T10:35:44;15.20;1.00
28546;DHT22;15749;49.606;8.738;2024-03-06T10:38:14;15.20;1.00
28546;DHT22;15749;49.606;8.738;2024-03-06T10:42:13;15.20;1.00
28546;DHT22;15749;49.606;8.738;2024-03-06T10:44:50;15.30;1.00
28546;DHT22;15749;49.606;8.738;2024-03-06T10:47:36;15.30;1.00
28546;DHT22;15749;49.606;8.738;2024-03-06T10:50:12;15.30;1.00
28546;DHT22;15749;49.606;8.738;2024-03-06T10:52:44;15.30;1.00
28546;DHT22;15749;49.606;8.738;2024-03-06T10:55:16;15.40;1.00
28546;DHT22;15749;49.606;8.738;2024-03-06T10:57:48;15.40;1.00
28546;DHT22;15749;49.606;8.738;2024-03-06T11:00:18;15.40;1.00
28546;DHT22;15749;49.606;8.738;2024-03-06T11:02:47;15.50;1.00
28546;DHT22;15749;49.606;8.738;2024-03-06T11:05:17;15.50;1.00
28546;DHT22;15749;49.606;8.738;2024-03-06T11:07:47;15.50;1.00
28546;DHT22;15749;49.606;8.738;2024-03-06T11:10:30;15.50;1.00
28546;DHT22;15749;49.606;8.738;2024-03-06T11:13:01;15.60;1.00
28546;DHT22;15749;49.606;8.738;2024-03-06T11:15:31;15.60;1.00
28546;DHT22;15749;49.606;8.738;2024-03-06T11:18:43;15.60;1.00
28546;DHT22;15749;49.606;8.738;2024-03-06T11:21:34;15.60;1.00
28546;DHT22;15749;49.606;8.738;2024-03-06T11:24:14;15.70;1.00
28546;DHT22;15749;49.606;8.738;2024-03-06T11:26:46;15.70;1.00
28546;DHT22;15749;49.606;8.738;2024-03-06T11:29:18;15.80;1.00
28546;DHT22;15749;49.606;8.738;2024-03-06T11:32:02;15.80;1.00
28546;DHT22;15749;49.606;8.738;2024-03-06T11:34:31;15.80;1.00
28546;DHT22;15749;49.606;8.738;2024-03-06T11:37:04;15.80;1.00
28546;DHT22;15749;49.606;8.738;2024-03-06T11:39:35;15.80;1.00
28546;DHT22;15749;49.606;8.738;2024-03-06T11:42:05;15.80;1.00
28546;DHT22;15749;49.606;8.738;2024-03-06T11:44:52;15.80;1.00
28546;DHT22;15749;49.606;8.738;2024-03-06T11:47:23;15.90;1.00
28546;DHT22;15749;49.606;8.738;2024-03-06T11:49:53;15.90;1.00
28546;DHT22;15749;49.606;8.738;2024-03-06T11:52:23;15.90;1.00
28546;DHT22;15749;49.606;8.738;2024-03-06T11:54:52;15.90;1.00
28546;DHT22;15749;49.606;8.738;2024-03-06T11:57:22;15.90;1.00
28546;DHT22;15749;49.606;8.738;2024-03-06T11:59:53;15.90;1.00
28546;DHT22;15749;49.606;8.738;2024-03-06T12:02:23;15.90;1.00
28546;DHT22;15749;49.606;8.738;2024-03-06T12:04:52;15.90;1.00
28546;DHT22;15749;49.606;8.738;2024-03-06T12:07:21;16.00;1.00
28546;DHT22;15749;49.606;8.738;2024-03-06T12:09:52;16.00;1.00
28546;DHT22;15749;49.606;8.738;2024-03-06T12:12:21;16.00;1.00
28546;DHT22;15749;49.606;8.738;2024-03-06T12:14:58;16.00;1.00
28546;DHT22;15749;49.606;8.738;2024-03-06T12:17:28;16.00;1.00
28546;DHT22;15749;49.606;8.738;2024-03-06T12:19:59;16.00;1.00
28546;DHT22;15749;49.606;8.738;2024-03-06T12:22:30;16.00;1.00
28546;DHT22;15749;49.606;8.738;2024-03-06T12:25:00;16.00;1.00
28546;DHT22;15749;49.606;8.738;2024-03-06T12:27:29;16.00;1.00
28546;DHT22;15749;49.606;8.738;2024-03-06T12:30:00;16.00;1.00
28546;DHT22;15749;49.606;8.738;2024-03-06T12:32:32;16.00;1.00
28546;DHT22;15749;49.606;8.738;2024-03-06T12:35:02;16.00;1.00
28546;DHT22;15749;49.606;8.738;2024-03-06T12:37:32;16.00;1.00
28546;DHT22;15749;49.606;8.738;2024-03-06T12:40:03;16.00;1.00
28546;DHT22;15749;49.606;8.738;2024-03-06T12:42:34;16.00;1.00
28546;DHT22;15749;49.606;8.738;2024-03-06T12:45:05;16.00;1.00
28546;DHT22;15749;49.606;8.738;2024-03-06T12:47:35;16.00;1.00
28546;DHT22;15749;49.606;8.738;2024-03-06T12:50:05;16.00;1.00
28546;DHT22;15749;49.606;8.738;2024-03-06T12:52:35;16.00;1.00
28546;DHT22;15749;49.606;8.738;2024-03-06T12:55:05;16.00;1.00
28546;DHT22;15749;49.606;8.738;2024-03-06T12:57:35;16.00;1.00
28546;DHT22;15749;49.606;8.738;2024-03-06T13:00:06;16.10;1.00
28546;DHT22;15749;49.606;8.738;2024-03-06T13:02:44;16.00;1.00
28546;DHT22;15749;49.606;8.738;2024-03-06T13:05:13;16.10;1.00
28546;DHT22;15749;49.606;8.738;2024-03-06T13:07:43;16.10;1.00
28546;DHT22;15749;49.606;8.738;2024-03-06T13:10:12;16.10;1.00
28546;DHT22;15749;49.606;8.738;2024-03-06T13:12:41;16.10;1.00
28546;DHT22;15749;49.606;8.738;2024-03-06T13:15:12;16.10;1.00
28546;DHT22;15749;49.606;8.738;2024-03-06T13:17:41;16.10;1.00
28546;DHT22;15749;49.606;8.738;2024-03-06T13:20:11;16.10;1.00
28546;DHT22;15749;49.606;8.738;2024-03-06T13:22:40;16.10;1.00
28546;DHT22;15749;49.606;8.738;2024-03-06T13:25:10;16.10;1.00
28546;DHT22;15749;49.606;8.738;2024-03-06T13:27:40;16.10;1.00
28546;DHT22;15749;49.606;8.738;2024-03-06T13:30:09;16.10;1.00
28546;DHT22;15749;49.606;8.738;2024-03-06T13:32:41;16.10;1.00
28546;DHT22;15749;49.606;8.738;2024-03-06T13:35:13;16.20;1.00
28546;DHT22;15749;49.606;8.738;2024-03-06T13:37:42;16.20;1.00
28546;DHT22;15749;49.606;8.738;2024-03-06T13:40:12;16.20;1.00
28546;DHT22;15749;49.606;8.738;2024-03-06T13:42:42;16.20;1.00
28546;DHT22;15749;49.606;8.738;2024-03-06T13:45:13;16.20;1.00
28546;DHT22;15749;49.606;8.738;2024-03-06T13:47:45;16.20;1.00
28546;DHT22;15749;49.606;8.738;2024-03-06T13:50:17;16.20;1.00
28546;DHT22;15749;49.606;8.738;2024-03-06T13:52:46;16.20;1.00
28546;DHT22;15749;49.606;8.738;2024-03-06T13:55:16;16.20;1.00
28546;DHT22;15749;49.606;8.738;2024-03-06T13:57:46;16.20;1.00
28546;DHT22;15749;49.606;8.738;2024-03-06T14:00:17;16.20;1.00
28546;DHT22;15749;49.606;8.738;2024-03-06T14:02:50;16.20;1.00
28546;DHT22;15749;49.606;8.738;2024-03-06T14:05:20;16.20;1.00
28546;DHT22;15749;49.606;8.738;2024-03-06T14:07:52;16.20;1.00
28546;DHT22;15749;49.606;8.738;2024-03-06T14:10:22;16.20;1.00
28546;DHT22;15749;49.606;8.738;2024-03-06T14:12:52;16.20;1.00
28546;DHT22;15749;49.606;8.738;2024-03-06T14:15:22;16.20;1.00
28546;DHT22;15749;49.606;8.738;2024-03-06T14:17:53;16.20;1.00
28546;DHT22;15749;49.606;8.738;2024-03-06T14:20:23;16.20;1.00
28546;DHT22;15749;49.606;8.738;2024-03-06T14:22:53;16.20;1.00
28546;DHT22;15749;49.606;8.738;2024-03-06T14:25:22;16.20;1.00
28546;DHT22;15749;49.606;8.738;2024-03-06T14:27:51;16.20;1.00
28546;DHT22;15749;49.606;8.738;2024-03-06T14:30:20;16.20;1.00
28546;DHT22;15749;49.606;8.738;2024-03-06T14:32:50;16.20;1.00
28546;DHT22;15749;49.606;8.738;2024-03-06T14:35:20;16.20;1.00
28546;DHT22;15749;49.606;8.738;2024-03-06T14:37:49;16.20;1.00
28546;DHT22;15749;49.606;8.738;2024-03-06T14:40:18;16.20;1.00
28546;DHT22;15749;49.606;8.738;2024-03-06T14:42:48;16.20;1.00
28546;DHT22;15749;49.606;8.738;2024-03-06T14:45:20;16.20;1.00
28546;DHT22;15749;49.606;8.738;2024-03-06T14:47:49;16.20;1.00
28546;DHT22;15749;49.606;8.738;2024-03-06T14:50:20;16.20;1.00
28546;DHT22;15749;49.606;8.738;2024-03-06T14:52:49;16.20;1.00
28546;DHT22;15749;49.606;8.738;2024-03-06T14:55:18;16.10;1.00
28546;DHT22;15749;49.606;8.738;2024-03-06T14:57:48;16.20;1.00
28546;DHT22;15749;49.606;8.738;2024-03-06T15:00:17;16.10;1.00
28546;DHT22;15749;49.606;8.738;2024-03-06T15:02:51;16.10;1.00
28546;DHT22;15749;49.606;8.738;2024-03-06T15:05:22;16.10;1.00
28546;DHT22;15749;49.606;8.738;2024-03-06T15:07:51;16.10;1.00
28546;DHT22;15749;49.606;8.738;2024-03-06T15:10:20;16.10;1.00
28546;DHT22;15749;49.606;8.738;2024-03-06T15:12:50;16.10;1.00
28546;DHT22;15749;49.606;8.738;2024-03-06T15:15:23;16.10;1.00
28546;DHT22;15749;49.606;8.738;2024-03-06T15:17:52;16.00;1.00
28546;DHT22;15749;49.606;8.738;2024-03-06T15:20:23;16.00;1.00
28546;DHT22;15749;49.606;8.738;2024-03-06T15:22:52;16.00;1.00
28546;DHT22;15749;49.606;8.738;2024-03-06T15:25:21;16.00;1.00
28546;DHT22;15749;49.606;8.738;2024-03-06T15:27:51;16.00;1.00
28546;DHT22;15749;49.606;8.738;2024-03-06T15:30:20;16.00;1.00
28546;DHT22;15749;49.606;8.738;2024-03-06T15:32:49;16.00;1.00
28546;DHT22;15749;49.606;8.738;2024-03-06T15:35:18;16.00;1.00
28546;DHT22;15749;49.606;8.738;2024-03-06T15:37:51;16.00;1.00
28546;DHT22;15749;49.606;8.738;2024-03-06T15:40:22;16.00;1.00
28546;DHT22;15749;49.606;8.738;2024-03-06T15:42:52;16.00;1.00
28546;DHT22;15749;49.606;8.738;2024-03-06T15:45:24;16.00;1.00
28546;DHT22;15749;49.606;8.738;2024-03-06T15:47:53;15.90;1.00
28546;DHT22;15749;49.606;8.738;2024-03-06T15:50:22;16.00;1.00
28546;DHT22;15749;49.606;8.738;2024-03-06T15:52:53;15.90;1.00
28546;DHT22;15749;49.606;8.738;2024-03-06T15:55:22;15.90;1.00
28546;DHT22;15749;49.606;8.738;2024-03-06T15:57:52;15.90;1.00
28546;DHT22;15749;49.606;8.738;2024-03-06T16:00:21;15.90;1.00
28546;DHT22;15749;49.606;8.738;2024-03-06T16:02:50;15.90;1.00
28546;DHT22;15749;49.606;8.738;2024-03-06T16:05:20;15.90;1.00
28546;DHT22;15749;49.606;8.738;2024-03-06T16:07:49;15.90;1.00
28546;DHT22;15749;49.606;8.738;2024-03-06T16:10:32;15.90;1.00
28546;DHT22;15749;49.606;8.738;2024-03-06T16:13:03;15.90;1.00
28546;DHT22;15749;49.606;8.738;2024-03-06T16:15:32;15.90;1.00
28546;DHT22;15749;49.606;8.738;2024-03-06T16:18:01;15.90;1.00
28546;DHT22;15749;49.606;8.738;2024-03-06T16:20:30;15.80;1.00
28546;DHT22;15749;49.606;8.738;2024-03-06T16:22:59;15.80;1.00
28546;DHT22;15749;49.606;8.738;2024-03-06T16:25:28;15.80;1.00
28546;DHT22;15749;49.606;8.738;2024-03-06T16:27:59;15.80;1.00